Latest Weather Observations for Rottnest Island

IDW60801

Issued at 12:53 pm WST Friday 23 August 2019 (issued every 10 minutes, with the page automatically refreshed every 10 minutes)

About weather observations | Map of weather stations | Latest weather observations for WA | Other Formats
Station Details ID: 009193 Name: ROTTNEST ISLAND Lat: -32.01 Lon: 115.50 Height: 43.1 m
Data from the previous 72 hours. | See also: Recent months at Rottnest Island
Date/Time
WST
Temp
°C
App
Temp
°C
Dew
Point
°C
Rel
Hum
%
Delta-T
°C
Wind Press
QNH
hPa
Press
MSL
hPa
Rain since
9am
mm
Dir  Spd
km/h
Gust
km/h
Spd
kts
Gust
kts
23/12:30pm 13.5 6.4 8.1 70 2.7 S 35 46 19 25 1021.1 1021.1 0.2
23/12:09pm 12.9 6.4 9.0 77 2.0 S 33 54 18 29 1020.5 1020.5 0.2
23/12:00pm 13.3 6.3 8.4 72 2.4 S 35 43 19 23 1020.9 1020.9 0.2
23/11:45am 14.1 7.2 8.9 71 2.6 SSW 35 46 19 25 1020.6 1020.6 0.2
23/11:30am 14.7 7.7 8.6 67 3.1 SSW 35 44 19 24 1021.1 1021.1 0.2
23/11:00am 13.3 5.7 7.5 68 2.8 SW 37 50 20 27 1021.0 1021.0 0.2
23/10:30am 11.9 4.3 8.9 82 1.5 SW 39 46 21 25 1021.2 1021.2 0.2
23/10:00am 14.2 5.4 7.3 63 3.4 SW 43 56 23 30 1020.6 1020.6 0.0
23/09:30am 14.5 6.4 5.3 54 4.3 WSW 37 48 20 26 1020.4 1020.4 0.0
23/09:00am 13.7 6.7 6.8 63 3.3 WSW 33 43 18 23 1020.2 1020.2 12.0
23/08:40am 11.8 5.1 7.5 75 2.1 WSW 32 56 17 30 1020.3 1020.3 12.0
23/08:34am 11.9 3.0 7.0 72 2.4 SW 43 56 23 30 1020.2 1020.2 12.0
23/08:30am 13.7 5.2 6.8 63 3.3 SW 41 50 22 27 1020.0 1020.0 12.0
23/08:22am 13.4 7.1 7.2 66 3.0 WSW 30 48 16 26 1019.9 1019.9 12.0
23/08:00am 13.2 5.1 7.2 67 2.9 WSW 39 54 21 29 1019.6 1019.6 12.0
23/07:49am 13.8 6.2 7.6 66 3.1 WSW 37 56 20 30 1019.3 1019.3 12.0
23/07:30am 13.4 5.2 6.7 64 3.2 SW 39 52 21 28 1019.2 1019.2 12.0
23/07:23am 13.4 5.4 7.4 67 2.9 SW 39 52 21 28 1019.0 1019.0 12.0
23/07:00am 12.2 8.1 8.5 78 1.8 WSW 20 32 11 17 1019.0 1019.0 12.0
23/06:30am 12.6 5.5 6.2 65 3.0 WSW 33 44 18 24 1018.6 1018.6 11.8
23/06:02am 12.7 6.9 8.0 73 2.3 W 28 50 15 27 1018.3 1018.3 11.8
23/06:00am 12.3 6.9 8.2 76 2.0 W 26 41 14 22 1018.4 1018.4 11.8
23/05:30am 13.5 7.9 7.1 65 3.1 SW 26 37 14 20 1017.9 1017.9 11.8
23/05:00am 13.7 5.9 6.6 62 3.4 SW 37 44 20 24 1017.3 1017.3 11.8
23/04:30am 13.4 5.8 6.0 61 3.5 SW 35 43 19 23 1017.2 1017.2 11.8
23/04:00am 13.3 4.8 5.0 57 3.8 WSW 39 52 21 28 1017.0 1017.0 11.8
23/03:30am 13.5 4.2 7.5 67 2.9 SW 46 57 25 31 1016.6 1016.5 11.8
23/03:00am 13.5 5.6 7.7 68 2.9 WSW 39 50 21 27 1016.3 1016.2 11.8
23/02:31am 13.4 6.6 9.3 76 2.1 SW 35 59 19 32 1016.4 1016.3 11.6
23/02:30am 13.4 7.0 9.5 77 2.0 SW 33 50 18 27 1016.4 1016.3 11.6
23/02:00am 13.2 7.6 10.0 81 1.6 SSW 30 43 16 23 1016.0 1015.9 11.2
23/01:30am 13.8 9.0 10.2 79 1.9 SW 26 39 14 21 1016.2 1016.1 11.0
23/01:00am 14.2 8.9 11.4 83 1.5 SW 30 41 16 22 1016.0 1015.9 11.0
23/12:30am 13.1 9.9 11.2 88 1.0 WSW 19 24 10 13 1016.3 1016.2 10.8
23/12:00am 13.1 8.7 10.3 83 1.5 SW 24 32 13 17 1015.7 1015.6 10.4
 
Date/Time
WST
Temp
°C
App
Temp
°C
Dew
Point
°C
Rel
Hum
%
Delta-T
°C
Wind Press
QNH
hPa
Press
MSL
hPa
Rain since
9am
mm
Dir  Spd
km/h
Gust
km/h
Spd
kts
Gust
kts
22/11:30pm 13.5 6.6 11.6 88 1.0 SW 39 46 21 25 1015.8 1015.7 10.4
22/11:00pm 14.1 7.1 11.4 84 1.4 WSW 39 48 21 26 1016.0 1015.9 10.2
22/10:30pm 13.7 7.6 11.9 89 1.0 WSW 35 54 19 29 1015.8 1015.7 9.8
22/10:00pm 14.0 7.7 11.2 83 1.5 WSW 35 54 19 29 1015.6 1015.5 8.6
22/09:41pm 13.8 7.4 12.0 89 1.0 SW 37 57 20 31 1015.5 1015.4 8.6
22/09:30pm 13.5 6.4 12.2 92 0.7 WSW 41 54 22 29 1015.6 1015.5 8.6
22/09:09pm 14.0 7.8 12.7 92 0.7 WSW 37 57 20 31 1015.4 1015.3 8.0
22/09:00pm 14.3 9.0 13.0 92 0.7 SW 33 43 18 23 1015.5 1015.4 7.2
22/08:30pm 14.9 10.4 13.9 94 0.6 WSW 30 41 16 22 1015.5 1015.4 6.2
22/08:00pm 15.1 11.4 14.0 93 0.6 WSW 26 37 14 20 1015.2 1015.1 4.8
22/07:30pm 16.0 11.8 14.7 92 0.7 WSW 30 39 16 21 1015.1 1015.0 3.6
22/07:00pm 15.9 11.2 14.4 91 0.9 WSW 32 43 17 23 1014.7 1014.6 3.4
22/06:40pm 17.1 11.8 14.2 83 1.7 W 35 50 19 27 1014.5 1014.4 1.4
22/06:30pm 18.7 13.9 15.6 82 1.8 NW 35 46 19 25 1014.2 1014.1 1.4
22/06:00pm 17.8 13.1 14.9 83 1.7 NNW 33 41 18 22 1014.0 1013.9 1.4
22/05:30pm 16.8 9.7 12.3 75 2.5 NW 41 52 22 28 1013.9 1013.8 0.6
22/05:00pm 17.8 12.9 15.4 86 1.4 NNW 35 44 19 24 1013.4 1013.3 0.4
22/04:38pm 17.3 10.6 13.4 78 2.2 NNW 41 59 22 32 1013.4 1013.3 0.2
22/04:30pm 19.1 13.5 15.6 80 2.1 NNW 39 50 21 27 1013.5 1013.4 0.0
22/04:00pm 20.2 14.3 15.6 75 2.7 NNW 41 50 22 27 1013.4 1013.3 0.0
22/03:30pm 19.9 13.6 14.5 71 3.1 NNW 41 50 22 27 1013.7 1013.6 0.0
22/03:00pm 20.3 13.1 13.7 66 3.8 NNW 44 52 24 28 1013.7 1013.6 0.0
22/02:30pm 20.2 12.9 12.7 62 4.2 NNW 43 50 23 27 1013.9 1013.8 0.0
22/02:00pm 20.9 13.1 11.0 53 5.4 NNW 43 54 23 29 1014.0 1013.9 0.0
22/01:30pm 20.3 13.1 10.7 54 5.2 NNW 39 48 21 26 1014.3 1014.2 0.0
22/01:00pm 20.6 13.6 9.8 50 5.8 NNW 37 44 20 24 1014.6 1014.5 0.0
22/12:30pm 20.6 13.6 8.6 46 6.3 NNW 35 43 19 23 1014.9 1014.8 0.0
22/12:00pm 20.4 13.8 8.7 47 6.1 N 33 41 18 22 1015.1 1015.0 0.0
22/11:30am 20.2 13.1 6.5 41 6.9 N 33 43 18 23 1015.4 1015.3 0.0
22/11:00am 20.0 13.7 7.4 44 6.4 N 30 39 16 21 1015.7 1015.6 0.0
22/10:30am 19.0 12.2 6.8 45 6.1 N 32 41 17 22 1015.9 1015.8 0.0
22/10:00am 19.0 13.2 7.8 48 5.7 N 28 41 15 22 1016.3 1016.2 0.0
22/09:30am 18.1 11.8 7.2 49 5.5 NNE 30 39 16 21 1016.1 1016.0 0.0
22/09:00am 17.4 10.5 6.6 49 5.3 NNE 32 41 17 22 1016.4 1016.3 0.0
22/08:30am 16.8 9.7 6.3 50 5.1 NNE 33 43 18 23 1016.2 1016.1 0.0
22/08:00am 16.0 8.9 6.2 52 4.8 NNE 33 41 18 22 1016.4 1016.3 0.0
22/07:30am 15.6 8.7 6.6 55 4.4 NNE 32 39 17 21 1016.7 1016.7 0.0
22/07:00am 15.3 8.3 6.1 54 4.4 NNE 32 43 17 23 1017.0 1017.0 0.0
22/06:30am 14.9 8.8 6.5 57 4.1 NNE 28 39 15 21 1017.0 1017.0 0.0
22/06:00am 15.6 9.3 5.8 52 4.7 NNE 28 41 15 22 1016.8 1016.8 0.0
22/05:30am 15.4 9.2 6.2 54 4.5 N 28 37 15 20 1017.0 1017.0 0.0
22/05:00am 15.7 9.4 5.9 52 4.7 N 28 41 15 22 1017.0 1017.0 0.0
22/04:30am 16.4 8.1 4.4 45 5.6 N 37 46 20 25 1016.9 1016.9 0.0
22/04:00am 16.5 8.8 5.2 47 5.4 N 35 46 19 25 1016.9 1016.9 0.0
22/03:30am 17.1 9.0 5.1 45 5.8 NNE 37 50 20 27 1016.6 1016.5 0.0
22/03:00am 17.3 9.7 5.6 46 5.7 NNE 35 44 19 24 1016.9 1016.9 0.0
22/02:30am 16.4 10.0 6.8 53 4.7 NNE 30 39 16 21 1017.4 1017.4 0.0
22/02:00am 16.1 10.9 7.3 56 4.4 NNE 24 30 13 16 1017.8 1017.8 0.0
22/01:30am 16.5 11.1 6.3 51 5.0 NNE 24 30 13 16 1018.3 1018.3 0.0
22/01:00am 16.5 11.2 6.9 53 4.7 N 24 30 13 16 1018.7 1018.7 0.0
22/12:30am 16.2 11.8 7.4 56 4.4 NNE 20 26 11 14 1019.2 1019.2 0.0
22/12:00am 16.4 11.9 8.4 59 4.1 NNE 22 26 12 14 1019.4 1019.4 0.0
 
Date/Time
WST
Temp
°C
App
Temp
°C
Dew
Point
°C
Rel
Hum
%
Delta-T
°C
Wind Press
QNH
hPa
Press
MSL
hPa
Rain since
9am
mm
Dir  Spd
km/h
Gust
km/h
Spd
kts
Gust
kts
21/11:30pm 16.0 11.9 7.7 58 4.2 NNE 19 22 10 12 1019.7 1019.7 0.0
21/11:00pm 16.0 12.2 7.7 58 4.1 NNE 17 20 9 11 1020.2 1020.2 0.0
21/10:30pm 16.6 13.6 9.3 62 3.8 NNE 15 17 8 9 1020.6 1020.6 0.0
21/10:00pm 16.6 14.8 9.3 62 3.8 NE 9 11 5 6 1021.1 1021.1 0.0
21/09:30pm 17.3 14.2 9.0 58 4.3 ENE 15 19 8 10 1021.4 1021.4 0.0
21/09:00pm 17.4 14.7 9.1 58 4.3 E 13 13 7 7 1021.4 1021.4 0.0
21/08:30pm 16.9 14.5 11.4 70 3.0 ESE 15 17 8 9 1021.3 1021.3 0.0
21/08:00pm 17.4 15.1 10.3 63 3.8 ESE 13 15 7 8 1021.3 1021.3 0.0
21/07:30pm 17.4 15.6 9.3 59 4.2 N 9 11 5 6 1021.4 1021.4 0.0
21/07:00pm 17.7 15.9 11.0 65 3.6 N 11 11 6 6 1021.4 1021.4 0.0
21/06:30pm 17.8 16.7 10.7 63 3.8 N 7 11 4 6 1021.4 1021.4 0.0
21/06:00pm 18.1 15.9 5.3 43 6.2 N 6 7 3 4 1021.6 1021.6 0.0
21/05:30pm 20.1 19.1 5.4 38 7.2 CALM 0 0 0 0 1021.7 1021.7 0.0
21/05:00pm 20.8 18.7 5.6 37 7.5 N 6 7 3 4 1021.6 1021.6 0.0
21/04:30pm 21.2 18.1 3.4 31 8.5 N 9 11 5 6 1021.7 1021.7 0.0
21/04:00pm 21.3 18.3 4.0 32 8.3 N 9 13 5 7 1021.9 1021.9 0.0
21/03:30pm 21.4 17.4 3.1 30 8.7 N 13 17 7 9 1022.1 1022.1 0.0
21/03:00pm 21.9 18.1 5.8 35 8.1 NNW 15 19 8 10 1022.4 1022.4 0.0
21/02:30pm 21.1 16.7 6.6 39 7.4 NNW 19 24 10 13 1022.8 1022.8 0.0
21/02:00pm 21.1 15.8 5.1 35 7.9 N 22 28 12 15 1023.1 1023.1 0.0
21/01:30pm 21.0 14.9 5.0 35 7.9 N 26 33 14 18 1023.4 1023.4 0.0
21/01:00pm 21.0 15.8 7.3 41 7.0 N 24 28 13 15 1024.0 1024.0 0.0
21/12:30pm 20.7 14.4 5.5 37 7.5 NNE 28 35 15 19 1024.4 1024.4 0.0
21/12:00pm 19.6 14.2 6.4 42 6.6 NNE 24 30 13 16 1025.0 1025.0 0.0
21/11:30am 18.9 12.8 5.0 40 6.7 NNE 26 33 14 18 1025.6 1025.6 0.0
21/11:00am 18.5 12.4 4.7 40 6.6 N 26 35 14 19 1025.9 1025.9 0.0
21/10:30am 18.1 12.0 5.0 42 6.3 NNE 26 32 14 17 1026.3 1026.3 0.0
21/10:00am 17.8 11.5 5.7 45 5.9 NNE 28 35 15 19 1026.3 1026.3 0.0
21/09:30am 17.4 11.0 5.4 45 5.8 NNE 28 37 15 20 1026.5 1026.5 0.0
21/09:00am 16.6 9.7 4.6 45 5.6 NNE 30 39 16 21 1026.3 1026.3 0.0
21/08:30am 16.4 9.9 4.8 46 5.5 NNE 28 37 15 20 1026.5 1026.5 0.0
21/08:00am 15.8 8.3 3.6 44 5.6 NNE 32 43 17 23 1026.4 1026.4 0.0
21/07:30am 15.4 8.0 4.2 47 5.2 NNE 32 41 17 22 1026.3 1026.3 0.0
21/07:00am 15.0 7.4 3.8 47 5.1 NNE 33 43 18 23 1026.2 1026.2 0.0
21/06:30am 15.0 8.1 4.7 50 4.8 NNE 30 39 16 21 1026.3 1026.3 0.0
21/06:00am 14.9 7.9 4.3 49 4.9 NNE 30 37 16 20 1026.2 1026.2 0.0
21/05:30am 14.9 8.5 5.1 52 4.6 NE 28 35 15 19 1026.2 1026.2 0.0
21/05:00am 15.0 9.4 5.5 53 4.5 NE 24 35 13 19 1026.1 1026.1 0.0
21/04:30am 14.9 9.7 5.7 54 4.4 NE 22 32 12 17 1026.2 1026.2 0.0
21/04:00am 14.9 9.3 5.4 53 4.5 NE 24 32 13 17 1026.2 1026.2 0.0
21/03:30am 15.0 10.2 5.5 53 4.5 NE 20 28 11 15 1026.4 1026.4 0.0
21/03:00am 14.8 10.4 6.6 58 4.0 ENE 19 24 10 13 1026.6 1026.6 0.0
21/02:30am 14.7 10.1 6.5 58 4.0 ENE 20 24 11 13 1026.8 1026.8 0.0
21/02:00am 14.7 10.7 6.5 58 3.9 ENE 17 22 9 12 1027.1 1027.1 0.0
21/01:30am 15.3 10.8 6.3 55 4.4 ENE 19 24 10 13 1027.4 1027.4 0.0
21/01:00am 15.4 11.0 6.7 56 4.2 ENE 19 26 10 14 1027.7 1027.7 0.0
21/12:30am 15.0 11.1 7.3 60 3.8 E 17 20 9 11 1028.0 1028.0 0.0
21/12:00am 15.2 11.1 8.0 62 3.6 E 19 24 10 13 1028.1 1028.1 0.0
 
Date/Time
WST
Temp
°C
App
Temp
°C
Dew
Point
°C
Rel
Hum
%
Delta-T
°C
Wind Press
QNH
hPa
Press
MSL
hPa
Rain since
9am
mm
Dir  Spd
km/h
Gust
km/h
Spd
kts
Gust
kts
20/11:30pm 15.4 11.4 8.2 62 3.6 E 19 22 10 12 1028.4 1028.4 0.0
20/11:00pm 15.4 11.5 8.6 64 3.4 E 19 24 10 13 1028.8 1028.8 0.0
20/10:30pm 15.7 11.9 9.1 65 3.4 E 19 20 10 11 1029.2 1029.2 0.0
20/10:00pm 15.8 13.1 10.3 70 2.9 ESE 15 19 8 10 1029.6 1029.6 0.0
20/09:30pm 15.4 12.9 11.0 75 2.3 SE 15 19 8 10 1029.8 1029.8 0.0
20/09:00pm 15.8 12.6 11.2 74 2.5 SE 19 20 10 11 1030.0 1030.0 0.0
20/08:30pm 16.0 12.9 11.6 75 2.4 SE 19 22 10 12 1030.1 1030.1 0.0
20/08:00pm 16.1 13.3 11.3 73 2.6 SE 17 20 9 11 1030.0 1030.0 0.0
20/07:30pm 16.4 13.2 11.1 71 2.8 SE 19 22 10 12 1029.9 1029.9 0.0
20/07:00pm 16.6 13.3 10.9 69 3.0 SSE 19 22 10 12 1029.8 1029.8 0.0
20/06:30pm 16.6 13.1 10.2 66 3.4 SSE 19 20 10 11 1029.7 1029.7 0.0
20/06:00pm 16.4 13.2 9.8 65 3.4 S 17 20 9 11 1029.7 1029.7 0.0
20/05:30pm 17.1 13.4 9.5 61 4.0 S 19 20 10 11 1029.7 1029.7 0.0
20/05:00pm 17.6 14.3 9.5 59 4.2 S 17 20 9 11 1029.9 1029.9 0.0
20/04:30pm 18.1 15.3 8.4 53 5.0 S 13 17 7 9 1030.0 1030.0 0.0
20/04:00pm 18.5 15.5 7.6 49 5.5 S 13 15 7 8 1030.2 1030.2 0.0
20/03:30pm 18.7 15.6 7.2 47 5.8 S 13 17 7 9 1030.5 1030.5 0.0
20/03:00pm 18.4 15.4 7.5 49 5.5 SSE 13 15 7 8 1030.6 1030.6 0.0
20/02:30pm 18.6 15.5 7.4 48 5.7 SSE 13 19 7 10 1030.8 1030.8 0.0
20/02:00pm 19.3 16.7 7.7 47 5.9 ESE 11 13 6 7 1031.1 1031.1 0.0
20/01:30pm 19.6 17.2 7.0 44 6.4 NE 9 13 5 7 1031.6 1031.6 0.0
20/01:00pm 18.9 15.9 6.1 43 6.3 NNE 11 19 6 10 1032.0 1032.0 0.0

Other formats

Comma delimited format used in spreadsheet applications
http://www.bom.gov.au/fwo/IDW60801/IDW60801.94602.axf

JavaScript Object Notation format (JSON) in row-major order
http://www.bom.gov.au/fwo/IDW60801/IDW60801.94602.json

Data quality

Most of these data are generated automatically and are frequently updated. Quality checks on data are not normally performed. It is possible for incorrect values to appear. Refer to information at About Latest Weather Observations and please check the disclaimer before using these data.